sensor_id;sensor_type;location;lat;lon;timestamp;temperature;humidity
16174;DHT22;14031;50.158;8.626;2023-07-09T00:03:11;25.00;99.90
16174;DHT22;14031;50.158;8.626;2023-07-09T00:05:48;25.00;99.90
16174;DHT22;14031;50.158;8.626;2023-07-09T00:08:45;24.90;99.90
16174;DHT22;14031;50.158;8.626;2023-07-09T00:45:19;24.30;99.90
16174;DHT22;14031;50.158;8.626;2023-07-09T01:00:49;24.10;99.90
16174;DHT22;14031;50.158;8.626;2023-07-09T01:03:42;24.10;99.90
16174;DHT22;14031;50.158;8.626;2023-07-09T01:06:33;24.00;99.90
16174;DHT22;14031;50.158;8.626;2023-07-09T01:09:38;23.90;99.90
16174;DHT22;14031;50.158;8.626;2023-07-09T01:12:43;23.90;99.90
16174;DHT22;14031;50.158;8.626;2023-07-09T01:15:52;23.90;99.90
16174;DHT22;14031;50.158;8.626;2023-07-09T01:22:21;23.80;99.90
16174;DHT22;14031;50.158;8.626;2023-07-09T01:25:28;23.70;99.90
16174;DHT22;14031;50.158;8.626;2023-07-09T01:34:34;23.60;99.90
16174;DHT22;14031;50.158;8.626;2023-07-09T01:37:44;23.60;99.90
16174;DHT22;14031;50.158;8.626;2023-07-09T01:40:36;23.60;99.90
16174;DHT22;14031;50.158;8.626;2023-07-09T01:43:27;23.50;99.90
16174;DHT22;14031;50.158;8.626;2023-07-09T01:49:48;23.50;99.90
16174;DHT22;14031;50.158;8.626;2023-07-09T01:52:29;23.40;99.90
16174;DHT22;14031;50.158;8.626;2023-07-09T01:58:43;23.30;99.90
16174;DHT22;14031;50.158;8.626;2023-07-09T02:01:46;23.30;99.90
16174;DHT22;14031;50.158;8.626;2023-07-09T02:04:25;23.20;99.90
16174;DHT22;14031;50.158;8.626;2023-07-09T02:20:05;23.00;99.90
16174;DHT22;14031;50.158;8.626;2023-07-09T02:23:08;23.00;99.90
16174;DHT22;14031;50.158;8.626;2023-07-09T02:26:12;23.00;99.90
16174;DHT22;14031;50.158;8.626;2023-07-09T02:29:00;22.90;99.90
16174;DHT22;14031;50.158;8.626;2023-07-09T02:32:13;22.90;99.90
16174;DHT22;14031;50.158;8.626;2023-07-09T02:34:49;22.90;99.90
16174;DHT22;14031;50.158;8.626;2023-07-09T02:43:49;22.80;99.90
16174;DHT22;14031;50.158;8.626;2023-07-09T02:46:51;22.80;99.90
16174;DHT22;14031;50.158;8.626;2023-07-09T02:53:02;22.80;99.90
16174;DHT22;14031;50.158;8.626;2023-07-09T02:59:04;22.70;99.90
16174;DHT22;14031;50.158;8.626;2023-07-09T03:02:06;22.70;99.90
16174;DHT22;14031;50.158;8.626;2023-07-09T03:04:54;22.70;99.90
16174;DHT22;14031;50.158;8.626;2023-07-09T03:07:43;22.70;99.90
16174;DHT22;14031;50.158;8.626;2023-07-09T03:10:28;22.60;99.90
16174;DHT22;14031;50.158;8.626;2023-07-09T03:16:46;22.70;99.90
16174;DHT22;14031;50.158;8.626;2023-07-09T03:19:37;22.60;99.90
16174;DHT22;14031;50.158;8.626;2023-07-09T03:28:52;22.50;99.90
16174;DHT22;14031;50.158;8.626;2023-07-09T03:32:34;22.50;99.90
16174;DHT22;14031;50.158;8.626;2023-07-09T03:35:39;22.40;99.90
16174;DHT22;14031;50.158;8.626;2023-07-09T03:41:26;22.40;99.90
16174;DHT22;14031;50.158;8.626;2023-07-09T03:47:36;22.30;99.90
16174;DHT22;14031;50.158;8.626;2023-07-09T03:50:25;22.30;99.90
16174;DHT22;14031;50.158;8.626;2023-07-09T03:53:20;22.20;99.90
16174;DHT22;14031;50.158;8.626;2023-07-09T03:55:55;22.20;99.90
16174;DHT22;14031;50.158;8.626;2023-07-09T03:58:42;22.20;99.90
16174;DHT22;14031;50.158;8.626;2023-07-09T04:01:41;22.20;99.90
16174;DHT22;14031;50.158;8.626;2023-07-09T04:04:14;22.20;99.90
16174;DHT22;14031;50.158;8.626;2023-07-09T04:06:49;22.10;99.90
16174;DHT22;14031;50.158;8.626;2023-07-09T04:09:17;22.10;99.90
16174;DHT22;14031;50.158;8.626;2023-07-09T04:11:45;22.20;99.90
16174;DHT22;14031;50.158;8.626;2023-07-09T04:14:44;22.20;99.90
16174;DHT22;14031;50.158;8.626;2023-07-09T04:17:32;22.20;99.90
16174;DHT22;14031;50.158;8.626;2023-07-09T04:20:43;22.20;99.90
16174;DHT22;14031;50.158;8.626;2023-07-09T04:23:47;22.20;99.90
16174;DHT22;14031;50.158;8.626;2023-07-09T04:29:59;22.30;99.90
16174;DHT22;14031;50.158;8.626;2023-07-09T04:36:36;22.30;99.90
16174;DHT22;14031;50.158;8.626;2023-07-09T04:42:39;22.40;99.90
16174;DHT22;14031;50.158;8.626;2023-07-09T04:45:47;22.40;99.90
16174;DHT22;14031;50.158;8.626;2023-07-09T04:48:59;22.40;99.90
16174;DHT22;14031;50.158;8.626;2023-07-09T04:51:46;22.50;99.90
16174;DHT22;14031;50.158;8.626;2023-07-09T04:54:30;22.50;99.90
16174;DHT22;14031;50.158;8.626;2023-07-09T04:57:17;22.50;99.90
16174;DHT22;14031;50.158;8.626;2023-07-09T05:00:05;22.50;99.90
16174;DHT22;14031;50.158;8.626;2023-07-09T05:02:50;22.60;99.90
16174;DHT22;14031;50.158;8.626;2023-07-09T05:05:22;22.60;99.90
16174;DHT22;14031;50.158;8.626;2023-07-09T05:07:49;22.60;99.90
16174;DHT22;14031;50.158;8.626;2023-07-09T05:10:40;22.60;99.90
16174;DHT22;14031;50.158;8.626;2023-07-09T05:13:08;22.70;99.90
16174;DHT22;14031;50.158;8.626;2023-07-09T05:15:40;22.70;99.90
16174;DHT22;14031;50.158;8.626;2023-07-09T05:18:08;22.80;99.90
16174;DHT22;14031;50.158;8.626;2023-07-09T05:20:42;22.80;99.90
16174;DHT22;14031;50.158;8.626;2023-07-09T05:23:09;22.80;99.90
16174;DHT22;14031;50.158;8.626;2023-07-09T05:25:37;22.90;99.90
16174;DHT22;14031;50.158;8.626;2023-07-09T05:28:04;23.00;99.90
16174;DHT22;14031;50.158;8.626;2023-07-09T05:30:36;22.90;99.90
16174;DHT22;14031;50.158;8.626;2023-07-09T05:33:07;23.00;99.90
16174;DHT22;14031;50.158;8.626;2023-07-09T05:38:43;23.10;99.90
16174;DHT22;14031;50.158;8.626;2023-07-09T05:41:11;23.20;99.90
16174;DHT22;14031;50.158;8.626;2023-07-09T05:44:01;23.20;99.90
16174;DHT22;14031;50.158;8.626;2023-07-09T05:49:41;23.30;99.90
16174;DHT22;14031;50.158;8.626;2023-07-09T05:52:31;23.40;99.90
16174;DHT22;14031;50.158;8.626;2023-07-09T05:59:13;23.60;99.90
16174;DHT22;14031;50.158;8.626;2023-07-09T06:02:08;23.60;99.90
16174;DHT22;14031;50.158;8.626;2023-07-09T06:05:09;23.70;99.90
16174;DHT22;14031;50.158;8.626;2023-07-09T06:07:39;23.80;99.90
16174;DHT22;14031;50.158;8.626;2023-07-09T06:10:14;23.90;99.90
16174;DHT22;14031;50.158;8.626;2023-07-09T06:15:35;24.00;99.90
16174;DHT22;14031;50.158;8.626;2023-07-09T06:18:04;24.00;99.90
16174;DHT22;14031;50.158;8.626;2023-07-09T06:20:33;24.10;99.90
16174;DHT22;14031;50.158;8.626;2023-07-09T06:23:18;24.20;99.90
16174;DHT22;14031;50.158;8.626;2023-07-09T06:25:47;24.20;99.90
16174;DHT22;14031;50.158;8.626;2023-07-09T06:31:59;24.40;99.90
16174;DHT22;14031;50.158;8.626;2023-07-09T06:34:29;24.50;99.90
16174;DHT22;14031;50.158;8.626;2023-07-09T06:37:17;24.50;99.90
16174;DHT22;14031;50.158;8.626;2023-07-09T06:39:48;24.60;99.90
16174;DHT22;14031;50.158;8.626;2023-07-09T06:42:22;24.70;99.90
16174;DHT22;14031;50.158;8.626;2023-07-09T06:45:09;24.70;99.90
16174;DHT22;14031;50.158;8.626;2023-07-09T06:47:38;24.80;99.90
16174;DHT22;14031;50.158;8.626;2023-07-09T06:50:13;24.90;99.90
16174;DHT22;14031;50.158;8.626;2023-07-09T06:52:51;24.90;99.90
16174;DHT22;14031;50.158;8.626;2023-07-09T06:55:23;25.10;99.90
16174;DHT22;14031;50.158;8.626;2023-07-09T06:57:52;25.10;99.90
16174;DHT22;14031;50.158;8.626;2023-07-09T07:00:35;25.10;99.90
16174;DHT22;14031;50.158;8.626;2023-07-09T07:03:29;25.20;99.90
16174;DHT22;14031;50.158;8.626;2023-07-09T07:05:57;25.30;99.90
16174;DHT22;14031;50.158;8.626;2023-07-09T07:08:25;25.40;99.90
16174;DHT22;14031;50.158;8.626;2023-07-09T07:11:13;25.60;99.90
16174;DHT22;14031;50.158;8.626;2023-07-09T07:16:43;25.80;99.90
16174;DHT22;14031;50.158;8.626;2023-07-09T07:19:13;25.90;99.90
16174;DHT22;14031;50.158;8.626;2023-07-09T07:21:39;26.00;99.90
16174;DHT22;14031;50.158;8.626;2023-07-09T07:24:07;26.10;99.90
16174;DHT22;14031;50.158;8.626;2023-07-09T07:26:34;26.20;99.90
16174;DHT22;14031;50.158;8.626;2023-07-09T07:29:01;26.30;99.90
16174;DHT22;14031;50.158;8.626;2023-07-09T07:31:28;26.40;99.90
16174;DHT22;14031;50.158;8.626;2023-07-09T07:33:58;26.50;99.90
16174;DHT22;14031;50.158;8.626;2023-07-09T07:36:29;26.50;99.90
16174;DHT22;14031;50.158;8.626;2023-07-09T07:38:56;26.60;99.90
16174;DHT22;14031;50.158;8.626;2023-07-09T07:41:23;26.70;99.90
16174;DHT22;14031;50.158;8.626;2023-07-09T07:43:55;26.80;99.90
16174;DHT22;14031;50.158;8.626;2023-07-09T07:47:02;27.00;99.90
16174;DHT22;14031;50.158;8.626;2023-07-09T07:49:29;27.00;99.90
16174;DHT22;14031;50.158;8.626;2023-07-09T07:51:57;27.10;99.90
16174;DHT22;14031;50.158;8.626;2023-07-09T07:54:24;27.20;99.90
16174;DHT22;14031;50.158;8.626;2023-07-09T07:56:51;27.20;99.90
16174;DHT22;14031;50.158;8.626;2023-07-09T07:59:18;27.30;99.90
16174;DHT22;14031;50.158;8.626;2023-07-09T08:01:47;27.40;99.90
16174;DHT22;14031;50.158;8.626;2023-07-09T08:04:14;27.50;99.90
16174;DHT22;14031;50.158;8.626;2023-07-09T08:06:41;27.60;99.90
16174;DHT22;14031;50.158;8.626;2023-07-09T08:09:09;27.70;99.90
16174;DHT22;14031;50.158;8.626;2023-07-09T08:11:36;27.80;99.90
16174;DHT22;14031;50.158;8.626;2023-07-09T08:14:02;27.90;99.90
16174;DHT22;14031;50.158;8.626;2023-07-09T08:16:29;28.00;99.90
16174;DHT22;14031;50.158;8.626;2023-07-09T08:18:56;28.10;99.90
16174;DHT22;14031;50.158;8.626;2023-07-09T08:21:23;28.20;99.90
16174;DHT22;14031;50.158;8.626;2023-07-09T08:23:49;28.20;99.90
16174;DHT22;14031;50.158;8.626;2023-07-09T08:26:17;28.30;99.90
16174;DHT22;14031;50.158;8.626;2023-07-09T08:28:44;28.40;99.90
16174;DHT22;14031;50.158;8.626;2023-07-09T08:31:11;28.40;99.90
16174;DHT22;14031;50.158;8.626;2023-07-09T08:33:38;28.60;99.90
16174;DHT22;14031;50.158;8.626;2023-07-09T08:36:05;28.60;99.90
16174;DHT22;14031;50.158;8.626;2023-07-09T08:38:32;28.60;99.90
16174;DHT22;14031;50.158;8.626;2023-07-09T08:41:00;28.70;99.90
16174;DHT22;14031;50.158;8.626;2023-07-09T08:43:36;28.80;99.90
16174;DHT22;14031;50.158;8.626;2023-07-09T08:46:15;29.00;99.90
16174;DHT22;14031;50.158;8.626;2023-07-09T08:48:46;29.00;99.90
16174;DHT22;14031;50.158;8.626;2023-07-09T08:51:18;29.10;99.90
16174;DHT22;14031;50.158;8.626;2023-07-09T08:53:49;29.20;99.90
16174;DHT22;14031;50.158;8.626;2023-07-09T08:56:17;29.30;99.90
16174;DHT22;14031;50.158;8.626;2023-07-09T08:58:47;29.40;99.90
16174;DHT22;14031;50.158;8.626;2023-07-09T09:01:18;29.50;99.90
16174;DHT22;14031;50.158;8.626;2023-07-09T09:03:48;29.60;99.90
16174;DHT22;14031;50.158;8.626;2023-07-09T09:06:17;29.70;99.90
16174;DHT22;14031;50.158;8.626;2023-07-09T09:09:02;29.80;99.90
16174;DHT22;14031;50.158;8.626;2023-07-09T09:11:39;29.90;99.90
16174;DHT22;14031;50.158;8.626;2023-07-09T09:14:19;30.10;99.90
16174;DHT22;14031;50.158;8.626;2023-07-09T09:16:49;30.20;99.90
16174;DHT22;14031;50.158;8.626;2023-07-09T09:19:22;30.30;99.90
16174;DHT22;14031;50.158;8.626;2023-07-09T09:21:56;30.40;99.90
16174;DHT22;14031;50.158;8.626;2023-07-09T09:24:27;30.50;99.90
16174;DHT22;14031;50.158;8.626;2023-07-09T09:26:58;30.40;99.90
16174;DHT22;14031;50.158;8.626;2023-07-09T09:29:27;30.60;99.90
16174;DHT22;14031;50.158;8.626;2023-07-09T09:31:56;30.70;99.90
16174;DHT22;14031;50.158;8.626;2023-07-09T09:34:26;30.80;99.90
16174;DHT22;14031;50.158;8.626;2023-07-09T09:36:54;30.90;99.90
16174;DHT22;14031;50.158;8.626;2023-07-09T09:39:22;31.00;99.90
16174;DHT22;14031;50.158;8.626;2023-07-09T09:41:52;31.10;99.90
16174;DHT22;14031;50.158;8.626;2023-07-09T09:44:24;31.20;99.90
16174;DHT22;14031;50.158;8.626;2023-07-09T09:46:52;31.30;99.90
16174;DHT22;14031;50.158;8.626;2023-07-09T09:49:22;31.50;99.90
16174;DHT22;14031;50.158;8.626;2023-07-09T09:51:49;31.60;99.90
16174;DHT22;14031;50.158;8.626;2023-07-09T09:54:19;31.70;99.90
16174;DHT22;14031;50.158;8.626;2023-07-09T09:56:48;31.80;99.90
16174;DHT22;14031;50.158;8.626;2023-07-09T09:59:18;31.90;99.90
16174;DHT22;14031;50.158;8.626;2023-07-09T10:01:46;32.00;99.90
16174;DHT22;14031;50.158;8.626;2023-07-09T10:04:18;32.10;99.90
16174;DHT22;14031;50.158;8.626;2023-07-09T10:06:47;32.20;99.90
16174;DHT22;14031;50.158;8.626;2023-07-09T10:09:32;32.30;99.90
16174;DHT22;14031;50.158;8.626;2023-07-09T10:12:08;32.40;99.90
16174;DHT22;14031;50.158;8.626;2023-07-09T10:14:48;32.50;99.90
16174;DHT22;14031;50.158;8.626;2023-07-09T10:17:20;32.60;99.90
16174;DHT22;14031;50.158;8.626;2023-07-09T10:19:57;32.70;99.90
16174;DHT22;14031;50.158;8.626;2023-07-09T10:22:37;32.80;99.90
16174;DHT22;14031;50.158;8.626;2023-07-09T10:25:13;32.90;99.90
16174;DHT22;14031;50.158;8.626;2023-07-09T10:27:53;33.00;99.90
16174;DHT22;14031;50.158;8.626;2023-07-09T10:30:35;33.10;99.90
16174;DHT22;14031;50.158;8.626;2023-07-09T10:33:08;33.30;99.90
16174;DHT22;14031;50.158;8.626;2023-07-09T10:35:43;33.30;99.90
16174;DHT22;14031;50.158;8.626;2023-07-09T10:38:22;33.50;99.90
16174;DHT22;14031;50.158;8.626;2023-07-09T10:40:54;33.60;99.90
16174;DHT22;14031;50.158;8.626;2023-07-09T10:43:33;33.70;99.90
16174;DHT22;14031;50.158;8.626;2023-07-09T10:46:04;33.80;99.90
16174;DHT22;14031;50.158;8.626;2023-07-09T10:48:37;33.90;99.90
16174;DHT22;14031;50.158;8.626;2023-07-09T10:51:15;34.00;99.90
16174;DHT22;14031;50.158;8.626;2023-07-09T10:53:45;34.20;99.90
16174;DHT22;14031;50.158;8.626;2023-07-09T10:56:16;34.30;99.90
16174;DHT22;14031;50.158;8.626;2023-07-09T10:58:49;34.40;99.90
16174;DHT22;14031;50.158;8.626;2023-07-09T11:01:21;34.50;99.90
16174;DHT22;14031;50.158;8.626;2023-07-09T11:03:54;34.60;99.70
16174;DHT22;14031;50.158;8.626;2023-07-09T11:06:28;34.60;99.00
16174;DHT22;14031;50.158;8.626;2023-07-09T11:08:59;34.70;98.40
16174;DHT22;14031;50.158;8.626;2023-07-09T11:11:31;34.80;98.80
16174;DHT22;14031;50.158;8.626;2023-07-09T11:14:02;34.90;99.90
16174;DHT22;14031;50.158;8.626;2023-07-09T11:16:36;35.00;99.30
16174;DHT22;14031;50.158;8.626;2023-07-09T11:19:06;35.20;97.40
16174;DHT22;14031;50.158;8.626;2023-07-09T11:21:40;35.30;96.00
16174;DHT22;14031;50.158;8.626;2023-07-09T11:24:29;35.40;96.20
16174;DHT22;14031;50.158;8.626;2023-07-09T11:26:57;35.50;96.30
16174;DHT22;14031;50.158;8.626;2023-07-09T11:29:25;35.70;96.00
16174;DHT22;14031;50.158;8.626;2023-07-09T11:31:52;35.80;95.50
16174;DHT22;14031;50.158;8.626;2023-07-09T11:34:20;36.00;94.10
16174;DHT22;14031;50.158;8.626;2023-07-09T11:36:50;36.10;94.30
16174;DHT22;14031;50.158;8.626;2023-07-09T11:39:20;36.20;93.30
16174;DHT22;14031;50.158;8.626;2023-07-09T11:41:47;36.30;94.00
16174;DHT22;14031;50.158;8.626;2023-07-09T11:44:16;36.40;94.50
16174;DHT22;14031;50.158;8.626;2023-07-09T11:46:54;36.50;94.80
16174;DHT22;14031;50.158;8.626;2023-07-09T11:49:24;36.70;93.40
16174;DHT22;14031;50.158;8.626;2023-07-09T11:51:56;36.90;93.40
16174;DHT22;14031;50.158;8.626;2023-07-09T11:54:25;36.90;91.80
16174;DHT22;14031;50.158;8.626;2023-07-09T11:56:56;37.10;91.50
16174;DHT22;14031;50.158;8.626;2023-07-09T11:59:24;37.10;91.00
16174;DHT22;14031;50.158;8.626;2023-07-09T12:01:52;37.20;88.70
16174;DHT22;14031;50.158;8.626;2023-07-09T12:04:22;37.20;84.60
16174;DHT22;14031;50.158;8.626;2023-07-09T12:06:56;37.10;86.50
16174;DHT22;14031;50.158;8.626;2023-07-09T12:09:23;37.20;87.80
16174;DHT22;14031;50.158;8.626;2023-07-09T12:11:51;37.10;85.70
16174;DHT22;14031;50.158;8.626;2023-07-09T12:14:19;37.20;83.90
16174;DHT22;14031;50.158;8.626;2023-07-09T12:16:47;37.30;84.40
16174;DHT22;14031;50.158;8.626;2023-07-09T12:19:16;37.40;81.70
16174;DHT22;14031;50.158;8.626;2023-07-09T12:21:45;37.50;80.70
16174;DHT22;14031;50.158;8.626;2023-07-09T12:24:20;37.60;81.60
16174;DHT22;14031;50.158;8.626;2023-07-09T12:26:49;37.80;77.70
16174;DHT22;14031;50.158;8.626;2023-07-09T12:29:15;37.90;80.60
16174;DHT22;14031;50.158;8.626;2023-07-09T12:31:42;38.00;82.00
16174;DHT22;14031;50.158;8.626;2023-07-09T12:34:13;38.10;81.30
16174;DHT22;14031;50.158;8.626;2023-07-09T12:36:44;38.20;80.20
16174;DHT22;14031;50.158;8.626;2023-07-09T12:39:12;38.20;77.00
16174;DHT22;14031;50.158;8.626;2023-07-09T12:41:44;38.20;77.20
16174;DHT22;14031;50.158;8.626;2023-07-09T12:44:16;38.30;77.10
16174;DHT22;14031;50.158;8.626;2023-07-09T12:46:44;38.40;79.20
16174;DHT22;14031;50.158;8.626;2023-07-09T12:49:21;38.50;80.20
16174;DHT22;14031;50.158;8.626;2023-07-09T12:51:51;38.50;79.70
16174;DHT22;14031;50.158;8.626;2023-07-09T12:54:21;38.60;80.80
16174;DHT22;14031;50.158;8.626;2023-07-09T12:57:00;38.70;77.00
16174;DHT22;14031;50.158;8.626;2023-07-09T12:59:38;38.90;74.70
16174;DHT22;14031;50.158;8.626;2023-07-09T13:02:13;39.00;74.50
16174;DHT22;14031;50.158;8.626;2023-07-09T13:04:41;39.20;74.30
16174;DHT22;14031;50.158;8.626;2023-07-09T13:07:25;39.30;73.60
16174;DHT22;14031;50.158;8.626;2023-07-09T13:09:54;39.50;74.20
16174;DHT22;14031;50.158;8.626;2023-07-09T13:12:28;39.60;71.80
16174;DHT22;14031;50.158;8.626;2023-07-09T13:14:55;39.80;71.80
16174;DHT22;14031;50.158;8.626;2023-07-09T13:17:22;39.80;68.60
16174;DHT22;14031;50.158;8.626;2023-07-09T13:19:49;39.90;70.10
16174;DHT22;14031;50.158;8.626;2023-07-09T13:22:18;40.00;69.90
16174;DHT22;14031;50.158;8.626;2023-07-09T13:24:45;40.20;70.90
16174;DHT22;14031;50.158;8.626;2023-07-09T13:27:13;40.30;69.30
16174;DHT22;14031;50.158;8.626;2023-07-09T13:29:42;40.50;67.80
16174;DHT22;14031;50.158;8.626;2023-07-09T13:32:10;40.70;69.60
16174;DHT22;14031;50.158;8.626;2023-07-09T13:34:37;40.80;67.20
16174;DHT22;14031;50.158;8.626;2023-07-09T13:37:05;40.90;67.70
16174;DHT22;14031;50.158;8.626;2023-07-09T13:39:32;41.20;65.10
16174;DHT22;14031;50.158;8.626;2023-07-09T13:42:00;41.30;64.50
16174;DHT22;14031;50.158;8.626;2023-07-09T13:44:29;41.50;63.40
16174;DHT22;14031;50.158;8.626;2023-07-09T13:46:57;41.70;61.50
16174;DHT22;14031;50.158;8.626;2023-07-09T13:49:26;41.70;59.10
16174;DHT22;14031;50.158;8.626;2023-07-09T13:51:55;41.80;62.60
16174;DHT22;14031;50.158;8.626;2023-07-09T13:54:24;41.80;60.00
16174;DHT22;14031;50.158;8.626;2023-07-09T13:56:52;41.90;60.20
16174;DHT22;14031;50.158;8.626;2023-07-09T13:59:21;42.10;60.90
16174;DHT22;14031;50.158;8.626;2023-07-09T14:01:50;42.10;59.70
16174;DHT22;14031;50.158;8.626;2023-07-09T14:04:20;42.20;60.70
16174;DHT22;14031;50.158;8.626;2023-07-09T14:06:47;42.30;61.30
16174;DHT22;14031;50.158;8.626;2023-07-09T14:09:15;42.40;58.80
16174;DHT22;14031;50.158;8.626;2023-07-09T14:11:44;42.40;58.00
16174;DHT22;14031;50.158;8.626;2023-07-09T14:14:17;42.50;58.50
16174;DHT22;14031;50.158;8.626;2023-07-09T14:16:44;42.50;57.30
16174;DHT22;14031;50.158;8.626;2023-07-09T14:19:13;42.50;57.70
16174;DHT22;14031;50.158;8.626;2023-07-09T14:21:42;42.70;58.40
16174;DHT22;14031;50.158;8.626;2023-07-09T14:24:18;42.70;57.10
16174;DHT22;14031;50.158;8.626;2023-07-09T14:26:45;42.70;56.10
16174;DHT22;14031;50.158;8.626;2023-07-09T14:29:12;42.80;57.20
16174;DHT22;14031;50.158;8.626;2023-07-09T14:31:40;42.80;56.70
16174;DHT22;14031;50.158;8.626;2023-07-09T14:34:20;42.90;57.10
16174;DHT22;14031;50.158;8.626;2023-07-09T14:36:50;42.80;55.20
16174;DHT22;14031;50.158;8.626;2023-07-09T14:39:17;42.70;56.10
16174;DHT22;14031;50.158;8.626;2023-07-09T14:41:44;42.70;56.70
16174;DHT22;14031;50.158;8.626;2023-07-09T14:44:19;42.70;56.40
16174;DHT22;14031;50.158;8.626;2023-07-09T14:46:48;42.60;56.50
16174;DHT22;14031;50.158;8.626;2023-07-09T14:49:15;42.60;57.70
16174;DHT22;14031;50.158;8.626;2023-07-09T14:51:41;42.50;56.10
16174;DHT22;14031;50.158;8.626;2023-07-09T14:54:18;42.40;57.40
16174;DHT22;14031;50.158;8.626;2023-07-09T14:56:45;42.20;57.20
16174;DHT22;14031;50.158;8.626;2023-07-09T14:59:11;42.10;56.30
16174;DHT22;14031;50.158;8.626;2023-07-09T15:01:38;42.00;56.10
16174;DHT22;14031;50.158;8.626;2023-07-09T15:04:23;41.90;56.00
16174;DHT22;14031;50.158;8.626;2023-07-09T15:06:52;41.80;56.10
16174;DHT22;14031;50.158;8.626;2023-07-09T15:09:23;41.70;57.20
16174;DHT22;14031;50.158;8.626;2023-07-09T15:11:51;41.70;55.00
16174;DHT22;14031;50.158;8.626;2023-07-09T15:14:19;41.50;56.40
16174;DHT22;14031;50.158;8.626;2023-07-09T15:16:46;41.30;56.90
16174;DHT22;14031;50.158;8.626;2023-07-09T15:19:15;41.10;55.80
16174;DHT22;14031;50.158;8.626;2023-07-09T15:21:43;40.90;56.60
16174;DHT22;14031;50.158;8.626;2023-07-09T15:24:11;40.70;57.30
16174;DHT22;14031;50.158;8.626;2023-07-09T15:26:42;40.60;58.90
16174;DHT22;14031;50.158;8.626;2023-07-09T15:29:13;40.30;58.30
16174;DHT22;14031;50.158;8.626;2023-07-09T15:31:40;40.10;59.40
16174;DHT22;14031;50.158;8.626;2023-07-09T15:34:07;39.90;56.90
16174;DHT22;14031;50.158;8.626;2023-07-09T15:36:34;39.70;57.40
16174;DHT22;14031;50.158;8.626;2023-07-09T15:39:01;39.50;58.90
16174;DHT22;14031;50.158;8.626;2023-07-09T15:41:28;39.30;60.90
16174;DHT22;14031;50.158;8.626;2023-07-09T15:43:56;39.20;60.30
16174;DHT22;14031;50.158;8.626;2023-07-09T15:46:23;39.00;62.00
16174;DHT22;14031;50.158;8.626;2023-07-09T15:48:50;38.80;60.70
16174;DHT22;14031;50.158;8.626;2023-07-09T15:51:18;38.60;60.60
16174;DHT22;14031;50.158;8.626;2023-07-09T15:53:45;38.50;61.10
16174;DHT22;14031;50.158;8.626;2023-07-09T15:56:16;38.30;62.50
16174;DHT22;14031;50.158;8.626;2023-07-09T15:58:45;38.00;60.00
16174;DHT22;14031;50.158;8.626;2023-07-09T16:01:15;37.70;61.10
16174;DHT22;14031;50.158;8.626;2023-07-09T16:03:46;37.50;61.60
16174;DHT22;14031;50.158;8.626;2023-07-09T16:06:13;37.20;61.90
16174;DHT22;14031;50.158;8.626;2023-07-09T16:08:40;37.00;61.30
16174;DHT22;14031;50.158;8.626;2023-07-09T16:11:13;36.80;61.80
16174;DHT22;14031;50.158;8.626;2023-07-09T16:13:41;36.60;62.90
16174;DHT22;14031;50.158;8.626;2023-07-09T16:16:10;36.40;61.40
16174;DHT22;14031;50.158;8.626;2023-07-09T16:18:40;36.30;61.00
16174;DHT22;14031;50.158;8.626;2023-07-09T16:21:21;36.10;61.50
16174;DHT22;14031;50.158;8.626;2023-07-09T16:23:49;36.00;62.30
16174;DHT22;14031;50.158;8.626;2023-07-09T16:26:16;35.80;62.00
16174;DHT22;14031;50.158;8.626;2023-07-09T16:28:43;35.70;62.20
16174;DHT22;14031;50.158;8.626;2023-07-09T16:31:11;35.60;63.40
16174;DHT22;14031;50.158;8.626;2023-07-09T16:33:39;35.60;64.00
16174;DHT22;14031;50.158;8.626;2023-07-09T16:36:11;35.50;63.00
16174;DHT22;14031;50.158;8.626;2023-07-09T16:38:38;35.60;63.10
16174;DHT22;14031;50.158;8.626;2023-07-09T16:41:05;35.70;64.10
16174;DHT22;14031;50.158;8.626;2023-07-09T16:43:32;35.70;64.50
16174;DHT22;14031;50.158;8.626;2023-07-09T16:45:59;35.70;65.10
16174;DHT22;14031;50.158;8.626;2023-07-09T16:48:27;35.80;65.70
16174;DHT22;14031;50.158;8.626;2023-07-09T16:50:55;35.80;65.80
16174;DHT22;14031;50.158;8.626;2023-07-09T16:53:23;35.80;66.40
16174;DHT22;14031;50.158;8.626;2023-07-09T16:55:51;35.70;66.30
16174;DHT22;14031;50.158;8.626;2023-07-09T16:58:29;35.60;66.20
16174;DHT22;14031;50.158;8.626;2023-07-09T17:00:57;35.40;65.10
16174;DHT22;14031;50.158;8.626;2023-07-09T17:03:25;35.20;65.60
16174;DHT22;14031;50.158;8.626;2023-07-09T17:05:52;35.00;66.00
16174;DHT22;14031;50.158;8.626;2023-07-09T17:08:23;34.70;66.50
16174;DHT22;14031;50.158;8.626;2023-07-09T17:10:56;34.50;67.40
16174;DHT22;14031;50.158;8.626;2023-07-09T17:13:25;34.30;69.10
16174;DHT22;14031;50.158;8.626;2023-07-09T17:15:52;34.10;69.90
16174;DHT22;14031;50.158;8.626;2023-07-09T17:18:29;33.90;70.60
16174;DHT22;14031;50.158;8.626;2023-07-09T17:20:59;33.80;71.90
16174;DHT22;14031;50.158;8.626;2023-07-09T17:23:28;33.70;72.90
16174;DHT22;14031;50.158;8.626;2023-07-09T17:25:57;33.50;73.90
16174;DHT22;14031;50.158;8.626;2023-07-09T17:28:28;33.30;74.80
16174;DHT22;14031;50.158;8.626;2023-07-09T17:30:58;33.20;77.00
16174;DHT22;14031;50.158;8.626;2023-07-09T17:33:25;33.00;77.30
16174;DHT22;14031;50.158;8.626;2023-07-09T17:35:53;32.90;78.60
16174;DHT22;14031;50.158;8.626;2023-07-09T17:38:23;32.90;79.60
16174;DHT22;14031;50.158;8.626;2023-07-09T17:40:53;32.70;80.50
16174;DHT22;14031;50.158;8.626;2023-07-09T17:43:24;32.60;81.60
16174;DHT22;14031;50.158;8.626;2023-07-09T17:45:52;32.50;82.60
16174;DHT22;14031;50.158;8.626;2023-07-09T17:48:22;32.50;83.40
16174;DHT22;14031;50.158;8.626;2023-07-09T17:50:50;32.40;84.00
16174;DHT22;14031;50.158;8.626;2023-07-09T17:53:19;32.30;84.80
16174;DHT22;14031;50.158;8.626;2023-07-09T17:55:46;32.10;85.80
16174;DHT22;14031;50.158;8.626;2023-07-09T17:58:18;32.00;86.70
16174;DHT22;14031;50.158;8.626;2023-07-09T18:00:47;31.90;87.40
16174;DHT22;14031;50.158;8.626;2023-07-09T18:03:16;31.80;88.50
16174;DHT22;14031;50.158;8.626;2023-07-09T18:05:43;31.70;89.70
16174;DHT22;14031;50.158;8.626;2023-07-09T18:08:11;31.60;90.20
16174;DHT22;14031;50.158;8.626;2023-07-09T18:10:40;31.40;91.00
16174;DHT22;14031;50.158;8.626;2023-07-09T18:13:10;31.30;91.10
16174;DHT22;14031;50.158;8.626;2023-07-09T18:15:39;31.30;92.10
16174;DHT22;14031;50.158;8.626;2023-07-09T18:18:07;31.20;91.90
16174;DHT22;14031;50.158;8.626;2023-07-09T18:20:35;31.20;92.50
16174;DHT22;14031;50.158;8.626;2023-07-09T18:23:02;31.10;93.50
16174;DHT22;14031;50.158;8.626;2023-07-09T18:25:29;31.10;93.80
16174;DHT22;14031;50.158;8.626;2023-07-09T18:27:59;31.10;94.30
16174;DHT22;14031;50.158;8.626;2023-07-09T18:30:28;31.10;94.90
16174;DHT22;14031;50.158;8.626;2023-07-09T18:32:59;31.10;95.40